createdAt,value
2024-02-10T00:00:40.663Z,981.39
2024-02-10T00:01:40.900Z,981.43
2024-02-10T00:02:40.693Z,981.45
2024-02-10T00:03:40.721Z,981.43
2024-02-10T00:04:40.817Z,981.42
2024-02-10T00:05:40.862Z,981.43
2024-02-10T00:06:40.898Z,981.40
2024-02-10T00:07:40.865Z,981.39
2024-02-10T00:08:40.859Z,981.40
2024-02-10T00:09:40.851Z,981.38
2024-02-10T00:10:40.920Z,981.40
2024-02-10T00:11:40.915Z,981.38
2024-02-10T00:12:40.923Z,981.44
2024-02-10T00:13:41.309Z,981.43
2024-02-10T00:14:40.966Z,981.41
2024-02-10T00:15:40.998Z,981.40
2024-02-10T00:16:41.054Z,981.41
2024-02-10T00:17:41.057Z,981.39
2024-02-10T00:18:41.096Z,981.44
2024-02-10T00:19:41.102Z,981.42
2024-02-10T00:20:41.118Z,981.42
2024-02-10T00:21:41.119Z,981.41
2024-02-10T00:22:41.232Z,981.39
2024-02-10T00:23:41.170Z,981.41
2024-02-10T00:24:41.208Z,981.42
2024-02-10T00:25:41.257Z,981.42
2024-02-10T00:26:41.237Z,981.40
2024-02-10T00:27:41.262Z,981.39
2024-02-10T00:28:41.350Z,981.40
2024-02-10T00:29:41.304Z,981.37
2024-02-10T00:30:41.324Z,981.40
2024-02-10T00:31:41.390Z,981.39
2024-02-10T00:32:41.376Z,981.42
2024-02-10T00:33:41.488Z,981.42
2024-02-10T00:34:41.609Z,981.39
2024-02-10T00:35:41.435Z,981.40
2024-02-10T00:36:41.465Z,981.40
2024-02-10T00:37:41.490Z,981.39
2024-02-10T00:38:41.502Z,981.37
2024-02-10T00:39:41.524Z,981.38
2024-02-10T00:40:41.597Z,981.38
2024-02-10T00:41:41.575Z,981.42
2024-02-10T00:42:41.589Z,981.38
2024-02-10T00:43:41.629Z,981.39
2024-02-10T00:44:41.637Z,981.40
2024-02-10T00:45:41.658Z,981.41
2024-02-10T00:46:41.744Z,981.44
2024-02-10T00:47:41.734Z,981.46
2024-02-10T00:48:41.871Z,981.48
2024-02-10T00:49:41.760Z,981.45
2024-02-10T00:50:41.784Z,981.47
2024-02-10T00:51:41.806Z,981.47
2024-02-10T00:52:41.849Z,981.48
2024-02-10T00:53:41.852Z,981.46
2024-02-10T00:54:41.874Z,981.47
2024-02-10T00:55:41.936Z,981.47
2024-02-10T00:56:41.902Z,981.51
2024-02-10T00:57:41.925Z,981.44
2024-02-10T00:58:42.341Z,981.45
2024-02-10T00:59:41.974Z,981.45
2024-02-10T01:00:42.023Z,981.47
2024-02-10T01:01:42.052Z,981.50
2024-02-10T01:02:42.041Z,981.53
2024-02-10T01:03:42.077Z,981.55
2024-02-10T01:04:42.158Z,981.50
2024-02-10T01:05:42.321Z,981.51
2024-02-10T01:06:42.145Z,981.58
2024-02-10T01:07:42.248Z,981.58
2024-02-10T01:08:42.183Z,981.59
2024-02-10T01:09:42.195Z,981.59
2024-02-10T01:10:42.250Z,981.65
2024-02-10T01:11:42.264Z,981.63
2024-02-10T01:12:42.272Z,981.67
2024-02-10T01:13:42.312Z,981.64
2024-02-10T01:14:42.307Z,981.66
2024-02-10T01:15:42.332Z,981.69
2024-02-10T01:16:42.377Z,981.71
2024-02-10T01:17:42.407Z,981.73
2024-02-10T01:18:42.462Z,981.75
2024-02-10T01:19:42.428Z,981.79
2024-02-10T01:20:42.449Z,981.82
2024-02-10T01:21:42.491Z,981.85
2024-02-10T01:22:42.746Z,981.85
2024-02-10T01:23:42.520Z,981.86
2024-02-10T01:24:42.531Z,981.87
2024-02-10T01:25:42.611Z,981.90
2024-02-10T01:26:42.588Z,981.91
2024-02-10T01:27:42.596Z,981.92
2024-02-10T01:28:42.655Z,981.89
2024-02-10T01:29:42.643Z,981.92
2024-02-10T01:30:42.670Z,981.94
2024-02-10T01:31:42.764Z,981.95
2024-02-10T01:32:42.736Z,981.96
2024-02-10T01:33:42.960Z,981.99
2024-02-10T01:34:42.789Z,981.98
2024-02-10T01:35:42.796Z,981.98
2024-02-10T01:36:42.804Z,982.00
2024-02-10T01:37:42.855Z,982.00
2024-02-10T01:38:42.856Z,982.00
2024-02-10T01:39:42.870Z,982.03
2024-02-10T01:40:42.928Z,982.02
2024-02-10T01:41:42.917Z,982.04
2024-02-10T01:42:42.962Z,982.04
2024-02-10T01:43:43.261Z,982.06
2024-02-10T01:44:42.981Z,982.04
2024-02-10T01:45:43.006Z,982.05
2024-02-10T01:46:43.046Z,982.05
2024-02-10T01:47:43.074Z,982.09
2024-02-10T01:48:43.113Z,982.10
2024-02-10T01:49:43.281Z,982.13
2024-02-10T01:50:43.265Z,982.11
2024-02-10T01:51:43.136Z,982.11
2024-02-10T01:52:43.206Z,982.11
2024-02-10T01:53:43.194Z,982.09
2024-02-10T01:54:43.206Z,982.10
2024-02-10T01:55:43.255Z,982.07
2024-02-10T01:56:43.250Z,982.06
2024-02-10T01:57:43.286Z,982.06
2024-02-10T01:58:43.331Z,982.04
2024-02-10T01:59:43.343Z,982.05
2024-02-10T02:00:43.392Z,982.05
2024-02-10T02:01:43.401Z,982.04
2024-02-10T02:02:43.384Z,982.02
2024-02-10T02:03:46.086Z,981.99
2024-02-10T02:04:43.499Z,981.97
2024-02-10T02:05:43.472Z,981.98
2024-02-10T02:06:43.484Z,981.98
2024-02-10T02:07:43.536Z,982.02
2024-02-10T02:08:43.519Z,981.99
2024-02-10T02:09:43.549Z,982.00
2024-02-10T02:10:43.595Z,982.02
2024-02-10T02:11:43.598Z,981.99
2024-02-10T02:12:43.607Z,981.98
2024-02-10T02:13:43.677Z,981.96
2024-02-10T02:14:43.652Z,981.96
2024-02-10T02:15:43.679Z,981.93
2024-02-10T02:16:43.738Z,981.98
2024-02-10T02:17:43.754Z,981.92
2024-02-10T02:18:43.761Z,981.90
2024-02-10T02:19:43.978Z,981.92
2024-02-10T02:20:43.789Z,981.94
2024-02-10T02:21:43.825Z,981.95
2024-02-10T02:22:43.855Z,981.96
2024-02-10T02:23:43.854Z,981.95
2024-02-10T02:24:43.878Z,981.97
2024-02-10T02:25:43.936Z,981.99
2024-02-10T02:26:43.921Z,981.98
2024-02-10T02:27:43.944Z,981.98
2024-02-10T02:28:44.096Z,982.02
2024-02-10T02:29:44.010Z,981.98
2024-02-10T02:30:44.020Z,981.95
2024-02-10T02:31:44.091Z,981.94
2024-02-10T02:32:44.211Z,981.97
2024-02-10T02:33:44.129Z,981.98
2024-02-10T02:34:44.168Z,981.97
2024-02-10T02:35:44.124Z,982.00
2024-02-10T02:36:44.152Z,982.01
2024-02-10T02:37:44.551Z,981.99
2024-02-10T02:38:44.191Z,982.01
2024-02-10T02:39:44.210Z,982.04
2024-02-10T02:40:44.266Z,981.98
2024-02-10T02:41:44.274Z,981.94
2024-02-10T02:42:44.289Z,981.92
2024-02-10T02:43:44.330Z,981.91
2024-02-10T02:44:44.346Z,981.92
2024-02-10T02:45:44.352Z,981.89
2024-02-10T02:46:44.428Z,981.91
2024-02-10T02:47:44.446Z,981.91
2024-02-10T02:48:44.529Z,981.89
2024-02-10T02:49:44.462Z,981.91
2024-02-10T02:50:44.459Z,981.89
2024-02-10T02:51:44.482Z,981.89
2024-02-10T02:52:44.567Z,981.89
2024-02-10T02:53:44.527Z,981.89
2024-02-10T02:54:44.549Z,981.87
2024-02-10T02:55:44.679Z,981.87
2024-02-10T02:56:44.593Z,981.87
2024-02-10T02:57:44.618Z,981.86
2024-02-10T02:58:44.672Z,981.85
2024-02-10T02:59:44.665Z,981.86
2024-02-10T03:00:44.708Z,981.91
2024-02-10T03:01:44.742Z,981.88
2024-02-10T03:02:44.731Z,981.94
2024-02-10T03:03:44.782Z,981.94
2024-02-10T03:04:44.796Z,981.99
2024-02-10T03:05:44.791Z,981.99
2024-02-10T03:06:44.896Z,981.94
2024-02-10T03:07:44.892Z,981.90
2024-02-10T03:08:44.861Z,981.84
2024-02-10T03:09:44.886Z,981.84
2024-02-10T03:10:44.944Z,981.85
2024-02-10T03:11:44.922Z,981.88
2024-02-10T03:12:44.955Z,981.88
2024-02-10T03:13:45.009Z,981.89
2024-02-10T03:14:44.987Z,981.86
2024-02-10T03:15:45.044Z,981.86
2024-02-10T03:16:45.033Z,981.85
2024-02-10T03:17:45.113Z,981.85
2024-02-10T03:18:45.114Z,981.85
2024-02-10T03:19:45.116Z,981.85
2024-02-10T03:20:45.129Z,981.87
2024-02-10T03:21:45.148Z,981.85
2024-02-10T03:22:45.205Z,981.87
2024-02-10T03:23:45.191Z,981.89
2024-02-10T03:24:45.216Z,981.88
2024-02-10T03:25:45.267Z,981.87
2024-02-10T03:26:45.263Z,981.87
2024-02-10T03:27:45.282Z,981.84
2024-02-10T03:28:45.362Z,981.81
2024-02-10T03:29:45.336Z,981.83
2024-02-10T03:30:45.359Z,981.84
2024-02-10T03:31:45.443Z,981.83
2024-02-10T03:32:45.460Z,981.84
2024-02-10T03:33:45.487Z,981.81
2024-02-10T03:34:45.561Z,981.81
2024-02-10T03:35:45.585Z,981.84
2024-02-10T03:36:45.488Z,981.82
2024-02-10T03:37:45.547Z,981.80
2024-02-10T03:38:45.540Z,981.78
2024-02-10T03:39:45.548Z,981.78
2024-02-10T03:40:45.603Z,981.83
2024-02-10T03:41:45.593Z,981.73
2024-02-10T03:42:45.638Z,981.77
2024-02-10T03:43:45.673Z,981.74
2024-02-10T03:44:45.656Z,981.76
2024-02-10T03:45:45.690Z,981.78
2024-02-10T03:46:45.807Z,981.74
2024-02-10T03:47:45.848Z,981.76
2024-02-10T03:48:45.816Z,981.78
2024-02-10T03:49:45.821Z,981.76
2024-02-10T03:50:45.791Z,981.79
2024-02-10T03:51:45.813Z,981.76
2024-02-10T03:52:45.911Z,981.72
2024-02-10T03:53:45.870Z,981.71
2024-02-10T03:54:45.883Z,981.70
2024-02-10T03:55:45.938Z,981.73
2024-02-10T03:56:45.923Z,981.70
2024-02-10T03:57:45.945Z,981.72
2024-02-10T03:58:45.985Z,981.70
2024-02-10T03:59:45.992Z,981.65
2024-02-10T04:00:46.121Z,981.68
2024-02-10T04:01:46.059Z,981.63
2024-02-10T04:02:46.057Z,981.61
2024-02-10T04:03:46.600Z,981.60
2024-02-10T04:04:46.130Z,981.57
2024-02-10T04:05:46.122Z,981.57
2024-02-10T04:06:46.204Z,981.60
2024-02-10T04:07:46.175Z,981.55
2024-02-10T04:08:46.186Z,981.56
2024-02-10T04:09:46.237Z,981.53
2024-02-10T04:10:46.285Z,981.57
2024-02-10T04:11:48.476Z,981.56
2024-02-10T04:12:46.275Z,981.57
2024-02-10T04:13:46.347Z,981.55
2024-02-10T04:14:46.331Z,981.55
2024-02-10T04:15:46.340Z,981.55
2024-02-10T04:16:46.422Z,981.53
2024-02-10T04:17:46.432Z,981.56
2024-02-10T04:18:46.439Z,981.58
2024-02-10T04:19:46.476Z,981.55
2024-02-10T04:20:46.459Z,981.55
2024-02-10T04:21:46.480Z,981.56
2024-02-10T04:22:46.561Z,981.52
2024-02-10T04:23:46.527Z,981.54
2024-02-10T04:24:46.541Z,981.53
2024-02-10T04:25:46.606Z,981.52
2024-02-10T04:26:46.590Z,981.55
2024-02-10T04:27:46.605Z,981.54
2024-02-10T04:28:46.649Z,981.56
2024-02-10T04:29:46.683Z,981.59
2024-02-10T04:30:46.671Z,981.59
2024-02-10T04:31:46.759Z,981.56
2024-02-10T04:32:46.781Z,981.55
2024-02-10T04:33:46.947Z,981.53
2024-02-10T04:34:46.849Z,981.52
2024-02-10T04:35:46.793Z,981.52
2024-02-10T04:36:46.811Z,981.51
2024-02-10T04:37:46.867Z,981.48
2024-02-10T04:38:46.854Z,981.54
2024-02-10T04:39:46.882Z,981.52
2024-02-10T04:40:46.908Z,981.52
2024-02-10T04:41:46.920Z,981.50
2024-02-10T04:42:46.942Z,981.46
2024-02-10T04:43:46.989Z,981.48
2024-02-10T04:44:46.989Z,981.49
2024-02-10T04:45:47.003Z,981.50
2024-02-10T04:46:47.061Z,981.51
2024-02-10T04:47:47.088Z,981.52
2024-02-10T04:48:47.093Z,981.49
2024-02-10T04:49:47.148Z,981.53
2024-02-10T04:50:47.117Z,981.54
2024-02-10T04:51:47.169Z,981.50
2024-02-10T04:52:47.203Z,981.52
2024-02-10T04:53:47.182Z,981.49
2024-02-10T04:54:47.203Z,981.47
2024-02-10T04:55:47.288Z,981.44
2024-02-10T04:56:47.253Z,981.47
2024-02-10T04:57:47.274Z,981.43
2024-02-10T04:58:47.373Z,981.37
2024-02-10T04:59:47.323Z,981.43
2024-02-10T05:00:47.354Z,981.47
2024-02-10T05:01:47.402Z,981.45
2024-02-10T05:02:47.379Z,981.47
2024-02-10T05:03:47.468Z,981.49
2024-02-10T05:04:47.478Z,981.51
2024-02-10T05:05:47.500Z,981.47
2024-02-10T05:06:47.470Z,981.47
2024-02-10T05:07:47.553Z,981.47
2024-02-10T05:08:47.522Z,981.48
2024-02-10T05:09:47.542Z,981.48
2024-02-10T05:10:47.615Z,981.45
2024-02-10T05:11:47.581Z,981.45
2024-02-10T05:12:47.611Z,981.46
2024-02-10T05:13:47.673Z,981.44
2024-02-10T05:14:47.641Z,981.42
2024-02-10T05:15:47.670Z,981.41
2024-02-10T05:16:47.716Z,981.44
2024-02-10T05:17:47.728Z,981.43
2024-02-10T05:18:47.809Z,981.43
2024-02-10T05:19:47.860Z,981.41
2024-02-10T05:20:47.914Z,981.40
2024-02-10T05:21:47.806Z,981.42
2024-02-10T05:22:47.859Z,981.44
2024-02-10T05:23:47.838Z,981.40
2024-02-10T05:24:47.860Z,981.40
2024-02-10T05:25:47.897Z,981.44
2024-02-10T05:26:47.904Z,981.43
2024-02-10T05:27:47.943Z,981.44
2024-02-10T05:28:48.051Z,981.41
2024-02-10T05:29:47.974Z,981.45
2024-02-10T05:30:47.990Z,981.43
2024-02-10T05:31:48.034Z,981.46
2024-02-10T05:32:48.103Z,981.45
2024-02-10T05:33:48.099Z,981.48
2024-02-10T05:34:48.114Z,981.50
2024-02-10T05:35:48.164Z,981.48
2024-02-10T05:36:48.156Z,981.50
2024-02-10T05:37:48.223Z,981.50
2024-02-10T05:38:48.168Z,981.49
2024-02-10T05:39:48.197Z,981.49
2024-02-10T05:40:48.297Z,981.50
2024-02-10T05:41:48.230Z,981.53
2024-02-10T05:42:48.253Z,981.49
2024-02-10T05:43:48.326Z,981.51
2024-02-10T05:44:48.296Z,981.52
2024-02-10T05:45:48.342Z,981.54
2024-02-10T05:46:48.396Z,981.50
2024-02-10T05:47:48.504Z,981.48
2024-02-10T05:48:48.468Z,981.49
2024-02-10T05:49:48.447Z,981.49
2024-02-10T05:50:48.433Z,981.50
2024-02-10T05:51:48.456Z,981.49
2024-02-10T05:52:48.546Z,981.50
2024-02-10T05:53:48.496Z,981.49
2024-02-10T05:54:48.522Z,981.50
2024-02-10T05:55:48.579Z,981.47
2024-02-10T05:56:48.558Z,981.53
2024-02-10T05:57:48.599Z,981.51
2024-02-10T05:58:48.650Z,981.47
2024-02-10T05:59:48.626Z,981.51
2024-02-10T06:00:48.674Z,981.47
2024-02-10T06:01:48.706Z,981.49
2024-02-10T06:02:48.695Z,981.51
2024-02-10T06:03:48.799Z,981.46
2024-02-10T06:04:48.766Z,981.46
2024-02-10T06:05:48.860Z,981.45
2024-02-10T06:06:48.922Z,981.45
2024-02-10T06:07:48.840Z,981.44
2024-02-10T06:08:48.828Z,981.43
2024-02-10T06:09:48.854Z,981.44
2024-02-10T06:10:48.935Z,981.46
2024-02-10T06:11:48.890Z,981.48
2024-02-10T06:12:48.915Z,981.50
2024-02-10T06:13:48.987Z,981.53
2024-02-10T06:14:48.959Z,981.49
2024-02-10T06:15:48.991Z,981.53
2024-02-10T06:16:49.039Z,981.50
2024-02-10T06:17:49.067Z,981.58
2024-02-10T06:18:49.049Z,981.56
2024-02-10T06:19:49.131Z,981.59
2024-02-10T06:20:49.090Z,981.59
2024-02-10T06:21:49.114Z,981.62
2024-02-10T06:22:49.203Z,981.65
2024-02-10T06:23:49.163Z,981.64
2024-02-10T06:24:49.185Z,981.67
2024-02-10T06:25:49.231Z,981.67
2024-02-10T06:26:49.219Z,981.70
2024-02-10T06:27:49.246Z,981.67
2024-02-10T06:28:49.298Z,981.70
2024-02-10T06:29:49.287Z,981.69
2024-02-10T06:30:49.310Z,981.72
2024-02-10T06:31:49.386Z,981.76
2024-02-10T06:32:49.398Z,981.79
2024-02-10T06:33:49.426Z,981.83
2024-02-10T06:34:49.545Z,981.84
2024-02-10T06:35:49.417Z,981.81
2024-02-10T06:36:49.439Z,981.82
2024-02-10T06:37:49.488Z,981.84
2024-02-10T06:38:49.482Z,981.86
2024-02-10T06:39:49.511Z,981.87
2024-02-10T06:40:49.563Z,981.90
2024-02-10T06:41:49.558Z,981.87
2024-02-10T06:42:49.569Z,981.93
2024-02-10T06:43:49.651Z,981.91
2024-02-10T06:44:49.614Z,981.91
2024-02-10T06:45:49.649Z,981.90
2024-02-10T06:46:49.715Z,981.92
2024-02-10T06:47:49.775Z,981.91
2024-02-10T06:48:49.735Z,981.92
2024-02-10T06:49:49.800Z,981.91
2024-02-10T06:50:49.750Z,981.92
2024-02-10T06:51:49.769Z,981.92
2024-02-10T06:52:49.844Z,981.95
2024-02-10T06:53:49.815Z,981.95
2024-02-10T06:54:49.848Z,981.97
2024-02-10T06:55:49.885Z,982.00
2024-02-10T06:56:49.887Z,981.98
2024-02-10T06:57:49.908Z,982.05
2024-02-10T06:58:49.954Z,982.05
2024-02-10T06:59:49.944Z,982.11
2024-02-10T07:00:50.127Z,982.16
2024-02-10T07:01:50.068Z,982.17
2024-02-10T07:02:50.010Z,982.17
2024-02-10T07:03:50.043Z,982.19
2024-02-10T07:04:50.148Z,982.21
2024-02-10T07:05:50.289Z,982.19
2024-02-10T07:06:50.181Z,982.21
2024-02-10T07:07:50.740Z,982.22
2024-02-10T07:08:50.146Z,982.24
2024-02-10T07:09:57.316Z,982.25
2024-02-10T07:11:44.175Z,982.27
2024-02-10T07:12:44.145Z,982.33
2024-02-10T07:14:48.744Z,982.34
2024-02-10T07:15:48.403Z,982.37
2024-02-10T07:17:52.567Z,982.33
2024-02-10T07:18:54.271Z,982.37
2024-02-10T07:20:56.398Z,982.39
2024-02-10T07:21:56.442Z,982.38
2024-02-10T07:24:00.443Z,982.42
2024-02-10T07:25:00.448Z,982.40
2024-02-10T07:27:04.468Z,982.38
2024-02-10T07:28:04.489Z,982.39
2024-02-10T07:30:08.506Z,982.42
2024-02-10T07:31:09.682Z,982.46
2024-02-10T07:33:13.002Z,982.49
2024-02-10T07:34:12.580Z,982.50
2024-02-10T07:36:06.546Z,982.56
2024-02-10T07:37:05.678Z,982.57
2024-02-10T07:39:09.734Z,982.56
2024-02-10T07:40:09.723Z,982.63
2024-02-10T07:42:13.729Z,982.65
2024-02-10T07:43:13.958Z,982.61
2024-02-10T07:45:17.771Z,982.60
2024-02-10T07:46:17.819Z,982.61
2024-02-10T07:48:21.792Z,982.60
2024-02-10T07:49:21.814Z,982.62
2024-02-10T07:51:25.805Z,982.63
2024-02-10T07:52:25.824Z,982.64
2024-02-10T07:54:30.325Z,982.66
2024-02-10T07:55:30.342Z,982.67
2024-02-10T07:56:30.352Z,982.68
2024-02-10T07:57:30.459Z,982.67
2024-02-10T07:58:30.405Z,982.65
2024-02-10T07:59:30.412Z,982.65
2024-02-10T08:00:30.435Z,982.67
2024-02-10T08:01:30.522Z,982.66
2024-02-10T08:02:30.474Z,982.71
2024-02-10T08:03:30.537Z,982.73
2024-02-10T08:04:30.547Z,982.74
2024-02-10T08:05:30.537Z,982.73
2024-02-10T08:06:30.652Z,982.79
2024-02-10T08:07:30.596Z,982.81
2024-02-10T08:08:30.696Z,982.79
2024-02-10T08:09:30.631Z,982.82
2024-02-10T08:10:30.658Z,982.86
2024-02-10T08:11:30.668Z,982.82
2024-02-10T08:12:30.698Z,982.84
2024-02-10T08:13:30.789Z,982.81
2024-02-10T08:14:30.738Z,982.88
2024-02-10T08:15:30.779Z,982.91
2024-02-10T08:16:30.805Z,982.91
2024-02-10T08:17:30.816Z,982.88
2024-02-10T08:18:30.937Z,982.94
2024-02-10T08:19:30.941Z,982.93
2024-02-10T08:20:30.864Z,982.95
2024-02-10T08:21:31.532Z,982.95
2024-02-10T08:22:30.932Z,982.97
2024-02-10T08:23:30.932Z,982.97
2024-02-10T08:24:30.953Z,983.02
2024-02-10T08:25:31.155Z,982.95
2024-02-10T08:26:31.084Z,983.01
2024-02-10T08:27:31.027Z,983.02
2024-02-10T08:28:31.072Z,983.01
2024-02-10T08:29:31.062Z,983.01
2024-02-10T08:30:31.085Z,983.00
2024-02-10T08:31:31.137Z,983.00
2024-02-10T08:32:31.149Z,982.96
2024-02-10T08:33:31.246Z,982.98
2024-02-10T08:34:31.181Z,982.93
2024-02-10T08:35:31.244Z,982.91
2024-02-10T08:36:31.220Z,982.94
2024-02-10T08:37:31.691Z,982.94
2024-02-10T08:38:31.261Z,982.99
2024-02-10T08:39:31.285Z,982.97
2024-02-10T08:40:31.343Z,982.96
2024-02-10T08:41:31.346Z,982.99
2024-02-10T08:42:31.347Z,983.01
2024-02-10T08:43:31.437Z,982.97
2024-02-10T08:44:31.395Z,982.97
2024-02-10T08:45:31.423Z,982.97
2024-02-10T08:46:31.466Z,983.00
2024-02-10T08:47:31.500Z,983.02
2024-02-10T08:48:31.656Z,982.98
2024-02-10T08:49:31.540Z,983.02
2024-02-10T08:50:31.542Z,983.06
2024-02-10T08:51:31.571Z,983.02
2024-02-10T08:52:31.658Z,983.05
2024-02-10T08:53:31.643Z,983.04
2024-02-10T08:54:31.618Z,983.04
2024-02-10T08:55:31.677Z,983.04
2024-02-10T08:56:31.672Z,983.07
2024-02-10T08:57:34.482Z,983.07
2024-02-10T08:58:31.749Z,983.05
2024-02-10T08:59:31.737Z,983.03
2024-02-10T09:00:31.760Z,983.04
2024-02-10T09:01:31.868Z,983.06
2024-02-10T09:02:31.806Z,983.07
2024-02-10T09:03:31.856Z,983.04
2024-02-10T09:04:31.871Z,983.07
2024-02-10T09:05:31.933Z,983.06
2024-02-10T09:06:33.817Z,983.04
2024-02-10T09:07:31.981Z,983.03
2024-02-10T09:08:31.968Z,983.03
2024-02-10T09:09:31.969Z,983.03
2024-02-10T09:10:32.020Z,983.03
2024-02-10T09:11:32.013Z,982.99
2024-02-10T09:12:32.029Z,983.07
2024-02-10T09:13:32.085Z,983.09
2024-02-10T09:14:32.074Z,983.07
2024-02-10T09:15:32.117Z,983.09
2024-02-10T09:16:32.182Z,983.12
2024-02-10T09:17:32.196Z,983.12
2024-02-10T09:18:32.288Z,983.15
2024-02-10T09:19:32.247Z,983.11
2024-02-10T09:20:32.216Z,983.11
2024-02-10T09:21:32.241Z,983.13
2024-02-10T09:22:32.273Z,983.12
2024-02-10T09:23:32.287Z,983.11
2024-02-10T09:24:34.715Z,983.12
2024-02-10T09:25:32.339Z,983.11
2024-02-10T09:26:32.463Z,983.15
2024-02-10T09:27:32.381Z,983.13
2024-02-10T09:28:32.426Z,983.16
2024-02-10T09:29:32.417Z,983.16
2024-02-10T09:30:32.437Z,983.15
2024-02-10T09:31:32.507Z,983.15
2024-02-10T09:32:32.530Z,983.14
2024-02-10T09:33:32.550Z,983.13
2024-02-10T09:34:32.569Z,983.10
2024-02-10T09:35:36.451Z,983.11
2024-02-10T09:36:35.207Z,983.10
2024-02-10T09:37:32.633Z,983.07
2024-02-10T09:38:32.659Z,983.08
2024-02-10T09:39:32.677Z,983.09
2024-02-10T09:40:32.720Z,983.08
2024-02-10T09:41:32.709Z,983.07
2024-02-10T09:42:32.747Z,983.08
2024-02-10T09:43:32.831Z,983.07
2024-02-10T09:44:32.802Z,983.14
2024-02-10T09:45:32.785Z,983.08
2024-02-10T09:46:32.819Z,983.11
2024-02-10T09:47:32.864Z,983.14
2024-02-10T09:48:32.883Z,983.14
2024-02-10T09:49:33.009Z,983.15
2024-02-10T09:50:37.684Z,983.12
2024-02-10T09:51:32.930Z,983.14
2024-02-10T09:52:32.974Z,983.10
2024-02-10T09:53:32.979Z,983.09
2024-02-10T09:54:32.999Z,983.10
2024-02-10T09:55:33.047Z,983.09
2024-02-10T09:56:33.045Z,983.13
2024-02-10T09:57:33.082Z,983.11
2024-02-10T09:58:33.138Z,983.13
2024-02-10T09:59:33.237Z,983.12
2024-02-10T10:00:33.162Z,983.11
2024-02-10T10:01:33.198Z,983.16
2024-02-10T10:02:33.185Z,983.17
2024-02-10T10:03:33.223Z,983.16
2024-02-10T10:04:33.359Z,983.16
2024-02-10T10:05:33.281Z,983.14
2024-02-10T10:06:33.275Z,983.16
2024-02-10T10:07:33.326Z,983.14
2024-02-10T10:08:33.326Z,983.18
2024-02-10T10:09:33.362Z,983.15
2024-02-10T10:10:33.438Z,983.19
2024-02-10T10:11:33.394Z,983.21
2024-02-10T10:12:33.416Z,983.15
2024-02-10T10:13:33.463Z,983.18
2024-02-10T10:14:33.463Z,983.16
2024-02-10T10:15:33.493Z,983.13
2024-02-10T10:16:33.587Z,983.10
2024-02-10T10:17:33.572Z,983.08
2024-02-10T10:18:33.587Z,983.12
2024-02-10T10:19:33.621Z,983.10
2024-02-10T10:20:33.611Z,983.10
2024-02-10T10:21:33.637Z,983.09
2024-02-10T10:22:33.672Z,983.11
2024-02-10T10:23:33.678Z,983.09
2024-02-10T10:24:33.719Z,983.08
2024-02-10T10:25:33.814Z,983.06
2024-02-10T10:26:33.752Z,983.06
2024-02-10T10:27:33.773Z,983.04
2024-02-10T10:28:33.823Z,983.05
2024-02-10T10:29:33.833Z,983.07
2024-02-10T10:30:33.868Z,983.06
2024-02-10T10:31:33.961Z,983.09
2024-02-10T10:32:33.997Z,983.03
2024-02-10T10:33:34.042Z,983.00
2024-02-10T10:34:33.997Z,983.00
2024-02-10T10:35:33.962Z,983.01
2024-02-10T10:36:33.989Z,982.95
2024-02-10T10:37:34.079Z,982.95
2024-02-10T10:38:34.047Z,982.95
2024-02-10T10:39:34.073Z,982.96
2024-02-10T10:40:34.166Z,982.92
2024-02-10T10:41:34.184Z,982.92
2024-02-10T10:42:34.131Z,982.96
2024-02-10T10:43:34.170Z,982.96
2024-02-10T10:44:34.180Z,982.97
2024-02-10T10:45:34.198Z,982.93
2024-02-10T10:46:34.472Z,982.91
2024-02-10T10:47:34.336Z,982.98
2024-02-10T10:48:34.410Z,982.99
2024-02-10T10:49:34.613Z,982.97
2024-02-10T10:50:34.356Z,982.99
2024-02-10T10:51:34.353Z,982.98
2024-02-10T10:52:34.401Z,983.00
2024-02-10T10:53:34.397Z,982.98
2024-02-10T10:54:34.418Z,982.99
2024-02-10T10:55:34.499Z,982.97
2024-02-10T10:56:34.514Z,982.95
2024-02-10T10:57:34.507Z,982.96
2024-02-10T10:58:34.892Z,982.94
2024-02-10T10:59:34.545Z,982.98
2024-02-10T11:00:34.569Z,982.94
2024-02-10T11:01:34.640Z,982.91
2024-02-10T11:02:44.203Z,982.90
2024-02-10T11:03:34.695Z,982.89
2024-02-10T11:04:34.703Z,982.88
2024-02-10T11:05:34.693Z,982.90
2024-02-10T11:06:34.945Z,982.90
2024-02-10T11:07:34.839Z,982.86
2024-02-10T11:08:34.764Z,982.86
2024-02-10T11:09:35.010Z,982.87
2024-02-10T11:10:34.861Z,982.82
2024-02-10T11:11:34.844Z,982.79
2024-02-10T11:12:34.873Z,982.82
2024-02-10T11:13:34.900Z,982.73
2024-02-10T11:14:34.916Z,982.77
2024-02-10T11:15:34.942Z,982.79
2024-02-10T11:16:35.161Z,982.77
2024-02-10T11:17:35.011Z,982.78
2024-02-10T11:18:35.156Z,982.82
2024-02-10T11:19:35.066Z,982.73
2024-02-10T11:20:35.064Z,982.80
2024-02-10T11:21:35.103Z,982.79
2024-02-10T11:22:35.164Z,982.79
2024-02-10T11:23:35.138Z,982.81
2024-02-10T11:24:35.158Z,982.82
2024-02-10T11:25:35.214Z,982.81
2024-02-10T11:26:35.216Z,982.84
2024-02-10T11:27:35.238Z,982.79
2024-02-10T11:28:35.308Z,982.76
2024-02-10T11:29:35.286Z,982.77
2024-02-10T11:30:35.311Z,982.81
2024-02-10T11:31:35.439Z,982.79
2024-02-10T11:32:35.374Z,982.82
2024-02-10T11:33:35.503Z,982.79
2024-02-10T11:34:35.477Z,982.80
2024-02-10T11:35:35.433Z,982.81
2024-02-10T11:36:35.459Z,982.79
2024-02-10T11:37:35.518Z,982.80
2024-02-10T11:38:35.579Z,982.79
2024-02-10T11:39:35.555Z,982.77
2024-02-10T11:40:35.569Z,982.76
2024-02-10T11:41:35.581Z,982.75
2024-02-10T11:42:35.607Z,982.69
2024-02-10T11:43:35.648Z,982.72
2024-02-10T11:44:35.655Z,982.68
2024-02-10T11:45:35.684Z,982.66
2024-02-10T11:46:35.737Z,982.62
2024-02-10T11:47:35.802Z,982.63
2024-02-10T11:48:35.760Z,982.64
2024-02-10T11:49:35.818Z,982.64
2024-02-10T11:50:38.112Z,982.65
2024-02-10T11:51:35.827Z,982.68
2024-02-10T11:52:35.911Z,982.69
2024-02-10T11:53:35.876Z,982.67
2024-02-10T11:54:35.904Z,982.67
2024-02-10T11:55:35.979Z,982.65
2024-02-10T11:56:35.953Z,982.67
2024-02-10T11:57:35.973Z,982.65
2024-02-10T11:58:36.026Z,982.62
2024-02-10T11:59:36.158Z,982.62
2024-02-10T12:00:36.059Z,982.59
2024-02-10T12:01:36.257Z,982.56
2024-02-10T12:02:36.101Z,982.57
2024-02-10T12:03:36.127Z,982.53
2024-02-10T12:04:36.329Z,982.51
2024-02-10T12:05:36.264Z,982.48
2024-02-10T12:06:36.227Z,982.46
2024-02-10T12:07:36.255Z,982.48
2024-02-10T12:08:36.255Z,982.45
2024-02-10T12:09:36.275Z,982.44
2024-02-10T12:10:36.364Z,982.41
2024-02-10T12:11:36.327Z,982.39
2024-02-10T12:12:36.358Z,982.42
2024-02-10T12:13:36.409Z,982.40
2024-02-10T12:14:36.405Z,982.41
2024-02-10T12:15:36.427Z,982.40
2024-02-10T12:16:36.585Z,982.43
2024-02-10T12:17:36.494Z,982.40
2024-02-10T12:18:36.533Z,982.38
2024-02-10T12:19:36.551Z,982.40
2024-02-10T12:20:36.550Z,982.38
2024-02-10T12:21:36.577Z,982.38
2024-02-10T12:22:36.635Z,982.41
2024-02-10T12:23:36.637Z,982.41
2024-02-10T12:24:36.659Z,982.40
2024-02-10T12:25:36.829Z,982.39
2024-02-10T12:26:36.742Z,982.42
2024-02-10T12:27:36.729Z,982.42
2024-02-10T12:28:36.826Z,982.45
2024-02-10T12:29:36.781Z,982.47
2024-02-10T12:30:36.808Z,982.47
2024-02-10T12:31:36.846Z,982.49
2024-02-10T12:32:36.898Z,982.49
2024-02-10T12:33:36.916Z,982.47
2024-02-10T12:34:36.970Z,982.47
2024-02-10T12:35:36.933Z,982.49
2024-02-10T12:36:36.960Z,982.48
2024-02-10T12:37:37.020Z,982.47
2024-02-10T12:38:37.028Z,982.48
2024-02-10T12:39:37.032Z,982.53
2024-02-10T12:40:37.079Z,982.51
2024-02-10T12:41:37.107Z,982.52
2024-02-10T12:42:37.114Z,982.48
2024-02-10T12:43:37.193Z,982.48
2024-02-10T12:44:37.299Z,982.51